YQA weather

Muskoka Airport
Muskoka, Ontario, Canada

Public forecast

Using degrees Celsius for public forecast. Weather courtesy of forecast.io.

Current aviation weather report (METAR) for Muskoka Airport

Retrieved 2019/11/20 18:00 UTC (26 minutes ago):

CYQA 201800Z AUTO 32004KT 280V340 9SM OVC007 03/02 A3008 RMK SLP198

Aviation forecast (TAF) for Muskoka Airport

Retrieved 2019/11/20 13:39 UTC (5 hours ago):

TAF CYQA 201238Z 2013/2101 VRB03KT 1SM -DZ BR OVC004 TEMPO 2013/2015 4SM BR SCT005 OVC010 PROB30 2013/2014 2SM -FZDZ BR FM201500 VRB03KT 4SM BR BKN007 OVC015 TEMPO 2015/2017 P6SM NSW FEW008 BKN015 FM201700 29005KT P6SM BKN015 OVC025 TEMPO 2017/2024 SCT015 BKN025 FM210000 VRB03KT 6SM BR BKN007 RMK FCST BASED ON AUTO OBS NXT FCST BY 202000Z